sensor_id;sensor_type;location;lat;lon;timestamp;pressure;altitude;pressure_sealevel;temperature;humidity
10948;BME280;5526;42.070;24.752;2023-12-29T00:00:50;99621.91;;;6.74;79.65
10948;BME280;5526;42.070;24.752;2023-12-29T00:03:17;99623.34;;;6.70;79.87
10948;BME280;5526;42.070;24.752;2023-12-29T00:05:45;99617.69;;;6.73;80.26
10948;BME280;5526;42.070;24.752;2023-12-29T00:08:12;99611.03;;;6.77;80.13
10948;BME280;5526;42.070;24.752;2023-12-29T00:10:39;99613.63;;;6.77;79.46
10948;BME280;5526;42.070;24.752;2023-12-29T00:13:06;99611.88;;;6.71;80.04
10948;BME280;5526;42.070;24.752;2023-12-29T00:15:33;99604.63;;;6.73;79.68
10948;BME280;5526;42.070;24.752;2023-12-29T00:18:01;99606.22;;;6.74;79.54
10948;BME280;5526;42.070;24.752;2023-12-29T00:20:28;99598.34;;;6.74;79.82
10948;BME280;5526;42.070;24.752;2023-12-29T00:22:55;99607.38;;;6.78;79.70
10948;BME280;5526;42.070;24.752;2023-12-29T00:25:24;99607.59;;;6.77;79.50
10948;BME280;5526;42.070;24.752;2023-12-29T00:27:51;99602.75;;;6.80;79.76
10948;BME280;5526;42.070;24.752;2023-12-29T00:30:18;99602.34;;;6.77;79.32
10948;BME280;5526;42.070;24.752;2023-12-29T00:32:46;99602.00;;;6.73;79.67
10948;BME280;5526;42.070;24.752;2023-12-29T00:35:14;99608.25;;;6.72;79.91
10948;BME280;5526;42.070;24.752;2023-12-29T00:37:40;99612.47;;;6.73;80.23
10948;BME280;5526;42.070;24.752;2023-12-29T00:40:09;99617.47;;;6.75;80.04
10948;BME280;5526;42.070;24.752;2023-12-29T00:42:36;99613.84;;;6.76;79.97
10948;BME280;5526;42.070;24.752;2023-12-29T00:45:03;99606.69;;;6.65;79.20
10948;BME280;5526;42.070;24.752;2023-12-29T00:47:31;99604.88;;;6.65;80.18
10948;BME280;5526;42.070;24.752;2023-12-29T00:49:58;99616.16;;;6.66;79.52
10948;BME280;5526;42.070;24.752;2023-12-29T00:52:27;99617.03;;;6.53;80.27
10948;BME280;5526;42.070;24.752;2023-12-29T00:54:54;99609.63;;;6.50;80.72
10948;BME280;5526;42.070;24.752;2023-12-29T00:57:21;99603.38;;;6.51;81.08
10948;BME280;5526;42.070;24.752;2023-12-29T00:59:48;99599.56;;;6.47;80.92
10948;BME280;5526;42.070;24.752;2023-12-29T01:02:15;99587.72;;;6.45;80.78
10948;BME280;5526;42.070;24.752;2023-12-29T01:04:42;99595.84;;;6.37;80.79
10948;BME280;5526;42.070;24.752;2023-12-29T01:07:09;99588.44;;;6.27;81.21
10948;BME280;5526;42.070;24.752;2023-12-29T01:09:41;99575.44;;;6.21;80.72
10948;BME280;5526;42.070;24.752;2023-12-29T01:12:08;99578.91;;;6.15;81.31
10948;BME280;5526;42.070;24.752;2023-12-29T01:14:35;99567.91;;;6.06;81.56
10948;BME280;5526;42.070;24.752;2023-12-29T01:17:02;99565.28;;;6.06;81.79
10948;BME280;5526;42.070;24.752;2023-12-29T01:19:29;99559.25;;;6.06;82.11
10948;BME280;5526;42.070;24.752;2023-12-29T01:21:56;99565.44;;;6.11;81.92
10948;BME280;5526;42.070;24.752;2023-12-29T01:24:23;99562.00;;;6.17;81.44
10948;BME280;5526;42.070;24.752;2023-12-29T01:26:52;99550.94;;;6.15;81.54
10948;BME280;5526;42.070;24.752;2023-12-29T01:29:19;99550.94;;;6.15;81.16
10948;BME280;5526;42.070;24.752;2023-12-29T01:31:46;99545.59;;;6.04;81.25
10948;BME280;5526;42.070;24.752;2023-12-29T01:34:13;99549.00;;;6.04;81.60
10948;BME280;5526;42.070;24.752;2023-12-29T01:36:40;99552.78;;;6.08;81.44
10948;BME280;5526;42.070;24.752;2023-12-29T01:39:07;99552.00;;;6.08;81.74
10948;BME280;5526;42.070;24.752;2023-12-29T01:41:34;99555.03;;;6.05;81.46
10948;BME280;5526;42.070;24.752;2023-12-29T01:44:20;99556.09;;;5.97;81.49
10948;BME280;5526;42.070;24.752;2023-12-29T01:46:49;99548.47;;;5.96;81.25
10948;BME280;5526;42.070;24.752;2023-12-29T01:49:17;99542.06;;;5.92;81.80
10948;BME280;5526;42.070;24.752;2023-12-29T01:51:45;99537.47;;;5.87;82.44
10948;BME280;5526;42.070;24.752;2023-12-29T01:54:13;99545.59;;;6.04;81.80
10948;BME280;5526;42.070;24.752;2023-12-29T01:56:41;99544.44;;;6.00;81.55
10948;BME280;5526;42.070;24.752;2023-12-29T01:59:08;99547.25;;;5.98;81.88
10948;BME280;5526;42.070;24.752;2023-12-29T02:01:38;99543.44;;;5.94;82.30
10948;BME280;5526;42.070;24.752;2023-12-29T02:04:05;99554.72;;;5.88;82.13
10948;BME280;5526;42.070;24.752;2023-12-29T02:06:33;99554.56;;;5.83;82.90
10948;BME280;5526;42.070;24.752;2023-12-29T02:09:02;99548.75;;;5.81;82.52
10948;BME280;5526;42.070;24.752;2023-12-29T02:11:30;99551.38;;;5.81;82.76
10948;BME280;5526;42.070;24.752;2023-12-29T02:13:57;99550.03;;;5.59;83.75
10948;BME280;5526;42.070;24.752;2023-12-29T02:16:33;99557.25;;;5.57;84.13
10948;BME280;5526;42.070;24.752;2023-12-29T02:19:12;99551.25;;;5.57;84.20
10948;BME280;5526;42.070;24.752;2023-12-29T02:21:41;99546.84;;;5.51;85.16
10948;BME280;5526;42.070;24.752;2023-12-29T02:24:08;99554.69;;;5.51;85.68
10948;BME280;5526;42.070;24.752;2023-12-29T02:26:36;99540.09;;;5.37;86.00
10948;BME280;5526;42.070;24.752;2023-12-29T02:29:06;99534.25;;;5.35;85.94
10948;BME280;5526;42.070;24.752;2023-12-29T02:31:39;99526.84;;;5.32;86.19
10948;BME280;5526;42.070;24.752;2023-12-29T02:34:12;99540.94;;;5.24;87.70
10948;BME280;5526;42.070;24.752;2023-12-29T02:36:41;99534.13;;;5.23;87.27
10948;BME280;5526;42.070;24.752;2023-12-29T02:39:10;99537.69;;;5.35;87.30
10948;BME280;5526;42.070;24.752;2023-12-29T02:41:38;99526.03;;;5.38;86.87
10948;BME280;5526;42.070;24.752;2023-12-29T02:44:05;99529.88;;;5.22;88.18
10948;BME280;5526;42.070;24.752;2023-12-29T02:46:32;99536.75;;;5.10;88.54
10948;BME280;5526;42.070;24.752;2023-12-29T02:48:59;99533.34;;;4.97;89.46
10948;BME280;5526;42.070;24.752;2023-12-29T02:51:26;99534.19;;;4.97;89.68
10948;BME280;5526;42.070;24.752;2023-12-29T02:53:53;99526.13;;;5.05;89.16
10948;BME280;5526;42.070;24.752;2023-12-29T02:56:20;99518.06;;;5.13;88.76
10948;BME280;5526;42.070;24.752;2023-12-29T02:58:49;99521.28;;;5.22;87.74
10948;BME280;5526;42.070;24.752;2023-12-29T03:01:17;99519.03;;;5.25;88.13
10948;BME280;5526;42.070;24.752;2023-12-29T03:03:44;99518.03;;;5.26;87.43
10948;BME280;5526;42.070;24.752;2023-12-29T03:06:11;99512.38;;;5.36;87.26
10948;BME280;5526;42.070;24.752;2023-12-29T03:08:38;99505.34;;;5.36;87.42
10948;BME280;5526;42.070;24.752;2023-12-29T03:11:05;99497.91;;;5.40;86.95
10948;BME280;5526;42.070;24.752;2023-12-29T03:13:32;99492.44;;;5.48;86.94
10948;BME280;5526;42.070;24.752;2023-12-29T03:16:00;99487.28;;;5.35;87.90
10948;BME280;5526;42.070;24.752;2023-12-29T03:18:27;99491.25;;;5.44;87.91
10948;BME280;5526;42.070;24.752;2023-12-29T03:20:54;99485.81;;;5.45;87.43
10948;BME280;5526;42.070;24.752;2023-12-29T03:23:21;99491.81;;;5.52;87.45
10948;BME280;5526;42.070;24.752;2023-12-29T03:25:48;99495.84;;;5.48;87.06
10948;BME280;5526;42.070;24.752;2023-12-29T03:28:15;99487.81;;;5.50;86.77
10948;BME280;5526;42.070;24.752;2023-12-29T03:30:43;99491.22;;;5.57;86.64
10948;BME280;5526;42.070;24.752;2023-12-29T03:33:11;99489.97;;;5.59;86.47
10948;BME280;5526;42.070;24.752;2023-12-29T03:35:38;99489.97;;;5.59;86.38
10948;BME280;5526;42.070;24.752;2023-12-29T03:38:05;99484.97;;;5.58;86.05
10948;BME280;5526;42.070;24.752;2023-12-29T03:40:32;99484.00;;;5.52;86.33
10948;BME280;5526;42.070;24.752;2023-12-29T03:42:59;99471.53;;;5.54;86.20
10948;BME280;5526;42.070;24.752;2023-12-29T03:45:26;99471.34;;;5.56;86.00
10948;BME280;5526;42.070;24.752;2023-12-29T03:47:53;99472.94;;;5.57;86.25
10948;BME280;5526;42.070;24.752;2023-12-29T03:50:22;99475.53;;;5.57;85.78
10948;BME280;5526;42.070;24.752;2023-12-29T03:52:49;99480.75;;;5.57;85.32
10948;BME280;5526;42.070;24.752;2023-12-29T03:55:16;99477.75;;;5.60;84.82
10948;BME280;5526;42.070;24.752;2023-12-29T03:57:43;99481.53;;;5.64;84.85
10948;BME280;5526;42.070;24.752;2023-12-29T04:00:12;99484.16;;;5.64;84.17
10948;BME280;5526;42.070;24.752;2023-12-29T04:02:40;99484.81;;;5.53;84.44
10948;BME280;5526;42.070;24.752;2023-12-29T04:05:08;99483.81;;;5.47;84.37
10948;BME280;5526;42.070;24.752;2023-12-29T04:07:39;99476.25;;;5.39;84.49
10948;BME280;5526;42.070;24.752;2023-12-29T04:10:06;99465.63;;;5.28;85.01
10948;BME280;5526;42.070;24.752;2023-12-29T04:12:34;99464.25;;;5.25;85.46
10948;BME280;5526;42.070;24.752;2023-12-29T04:15:01;99465.44;;;5.29;85.75
10948;BME280;5526;42.070;24.752;2023-12-29T04:17:28;99462.00;;;5.35;84.72
10948;BME280;5526;42.070;24.752;2023-12-29T04:19:55;99459.75;;;5.39;84.04
10948;BME280;5526;42.070;24.752;2023-12-29T04:22:22;99444.53;;;5.36;83.85
10948;BME280;5526;42.070;24.752;2023-12-29T04:24:51;99463.34;;;5.44;83.88
10948;BME280;5526;42.070;24.752;2023-12-29T04:27:18;99467.19;;;5.42;84.09
10948;BME280;5526;42.070;24.752;2023-12-29T04:29:45;99470.41;;;5.37;84.42
10948;BME280;5526;42.070;24.752;2023-12-29T04:32:12;99462.22;;;5.34;84.17
10948;BME280;5526;42.070;24.752;2023-12-29T04:34:39;99465.44;;;5.29;84.50
10948;BME280;5526;42.070;24.752;2023-12-29T04:37:06;99465.84;;;5.26;84.76
10948;BME280;5526;42.070;24.752;2023-12-29T04:39:33;99459.44;;;5.22;84.80
10948;BME280;5526;42.070;24.752;2023-12-29T04:42:02;99459.03;;;5.25;85.20
10948;BME280;5526;42.070;24.752;2023-12-29T04:44:29;99459.03;;;5.25;84.86
10948;BME280;5526;42.070;24.752;2023-12-29T04:46:56;99461.47;;;5.20;85.26
10948;BME280;5526;42.070;24.752;2023-12-29T04:49:23;99455.22;;;5.21;86.06
10948;BME280;5526;42.070;24.752;2023-12-29T04:51:50;99454.22;;;5.29;86.12
10948;BME280;5526;42.070;24.752;2023-12-29T04:54:18;99454.41;;;5.27;85.78
10948;BME280;5526;42.070;24.752;2023-12-29T04:56:45;99454.66;;;5.19;86.11
10948;BME280;5526;42.070;24.752;2023-12-29T04:59:13;99455.81;;;5.30;86.44
10948;BME280;5526;42.070;24.752;2023-12-29T05:01:40;99455.41;;;5.33;86.35
10948;BME280;5526;42.070;24.752;2023-12-29T05:04:07;99456.41;;;5.25;85.66
10948;BME280;5526;42.070;24.752;2023-12-29T05:06:35;99463.06;;;5.21;86.34
10948;BME280;5526;42.070;24.752;2023-12-29T05:09:02;99463.66;;;5.23;86.47
10948;BME280;5526;42.070;24.752;2023-12-29T05:11:30;99466.69;;;5.20;86.15
10948;BME280;5526;42.070;24.752;2023-12-29T05:13:58;99464.06;;;5.20;86.43
10948;BME280;5526;42.070;24.752;2023-12-29T05:16:26;99465.50;;;5.16;86.14
10948;BME280;5526;42.070;24.752;2023-12-29T05:18:53;99463.13;;;5.08;86.49
10948;BME280;5526;42.070;24.752;2023-12-29T05:21:20;99463.91;;;5.09;86.78
10948;BME280;5526;42.070;24.752;2023-12-29T05:23:49;99457.72;;;5.03;87.03
10948;BME280;5526;42.070;24.752;2023-12-29T05:26:17;99461.75;;;4.99;87.25
10948;BME280;5526;42.070;24.752;2023-12-29T05:28:44;99463.94;;;5.02;87.61
10948;BME280;5526;42.070;24.752;2023-12-29T05:31:11;99462.34;;;5.01;87.55
10948;BME280;5526;42.070;24.752;2023-12-29T05:33:40;99463.56;;;4.99;87.51
10948;BME280;5526;42.070;24.752;2023-12-29T05:36:09;99460.38;;;4.84;87.78
10948;BME280;5526;42.070;24.752;2023-12-29T05:38:36;99461.56;;;4.88;87.94
10948;BME280;5526;42.070;24.752;2023-12-29T05:41:04;99463.59;;;4.86;88.08
10948;BME280;5526;42.070;24.752;2023-12-29T05:43:32;99456.75;;;4.91;88.70
10948;BME280;5526;42.070;24.752;2023-12-29T05:46:00;99461.97;;;4.91;88.02
10948;BME280;5526;42.070;24.752;2023-12-29T05:48:27;99458.53;;;4.97;88.31
10948;BME280;5526;42.070;24.752;2023-12-29T05:50:56;99473.19;;;4.98;88.50
10948;BME280;5526;42.070;24.752;2023-12-29T05:53:23;99470.38;;;5.00;88.37
10948;BME280;5526;42.070;24.752;2023-12-29T05:55:50;99472.75;;;5.08;88.77
10948;BME280;5526;42.070;24.752;2023-12-29T05:58:17;99486.44;;;4.90;90.32
10948;BME280;5526;42.070;24.752;2023-12-29T06:00:44;99484.41;;;4.99;89.53
10948;BME280;5526;42.070;24.752;2023-12-29T06:03:12;99498.88;;;4.95;89.97
10948;BME280;5526;42.070;24.752;2023-12-29T06:05:39;99488.81;;;4.98;90.40
10948;BME280;5526;42.070;24.752;2023-12-29T06:08:07;99488.81;;;5.05;90.30
10948;BME280;5526;42.070;24.752;2023-12-29T06:10:35;99496.81;;;5.16;89.42
10948;BME280;5526;42.070;24.752;2023-12-29T06:13:03;99497.81;;;5.15;89.48
10948;BME280;5526;42.070;24.752;2023-12-29T06:15:31;99497.59;;;5.23;89.05
10948;BME280;5526;42.070;24.752;2023-12-29T06:17:59;99484.78;;;5.15;88.93
10948;BME280;5526;42.070;24.752;2023-12-29T06:20:27;99484.53;;;5.23;89.09
10948;BME280;5526;42.070;24.752;2023-12-29T06:22:54;99485.91;;;5.32;88.53
10948;BME280;5526;42.070;24.752;2023-12-29T06:25:23;99489.50;;;5.38;88.06
10948;BME280;5526;42.070;24.752;2023-12-29T06:27:50;99490.06;;;5.40;88.84
10948;BME280;5526;42.070;24.752;2023-12-29T06:30:17;99488.19;;;5.53;88.35
10948;BME280;5526;42.070;24.752;2023-12-29T06:32:45;99480.13;;;5.61;88.39
10948;BME280;5526;42.070;24.752;2023-12-29T06:35:13;99489.75;;;5.67;87.95
10948;BME280;5526;42.070;24.752;2023-12-29T06:37:40;99484.88;;;5.71;87.46
10948;BME280;5526;42.070;24.752;2023-12-29T06:40:08;99483.22;;;5.83;87.12
10948;BME280;5526;42.070;24.752;2023-12-29T06:42:37;99489.16;;;5.96;86.49
10948;BME280;5526;42.070;24.752;2023-12-29T06:45:05;99487.47;;;6.08;86.60
10948;BME280;5526;42.070;24.752;2023-12-29T06:47:33;99474.31;;;6.21;85.94
10948;BME280;5526;42.070;24.752;2023-12-29T06:50:00;99472.00;;;6.31;85.68
10948;BME280;5526;42.070;24.752;2023-12-29T06:52:27;99478.63;;;6.34;84.96
10948;BME280;5526;42.070;24.752;2023-12-29T06:54:59;99460.94;;;6.36;84.94
10948;BME280;5526;42.070;24.752;2023-12-29T06:57:27;99478.19;;;6.61;84.35
10948;BME280;5526;42.070;24.752;2023-12-29T06:59:56;99476.59;;;6.78;84.20
10948;BME280;5526;42.070;24.752;2023-12-29T07:02:23;99475.44;;;6.92;83.81
10948;BME280;5526;42.070;24.752;2023-12-29T07:04:50;99481.31;;;6.88;83.77
10948;BME280;5526;42.070;24.752;2023-12-29T07:07:17;99485.19;;;6.85;84.06
10948;BME280;5526;42.070;24.752;2023-12-29T07:09:44;99481.63;;;6.80;84.28
10948;BME280;5526;42.070;24.752;2023-12-29T07:12:12;99474.34;;;7.00;84.26
10948;BME280;5526;42.070;24.752;2023-12-29T07:14:40;99474.88;;;7.26;83.17
10948;BME280;5526;42.070;24.752;2023-12-29T07:17:09;99478.59;;;7.48;83.23
10948;BME280;5526;42.070;24.752;2023-12-29T07:19:36;99483.13;;;7.71;81.79
10948;BME280;5526;42.070;24.752;2023-12-29T07:22:04;99475.31;;;7.94;80.09
10948;BME280;5526;42.070;24.752;2023-12-29T07:24:32;99477.00;;;8.18;78.94
10948;BME280;5526;42.070;24.752;2023-12-29T07:27:00;99478.75;;;8.35;77.80
10948;BME280;5526;42.070;24.752;2023-12-29T07:29:27;99473.16;;;8.55;76.54
10948;BME280;5526;42.070;24.752;2023-12-29T07:31:55;99465.41;;;8.71;75.89
10948;BME280;5526;42.070;24.752;2023-12-29T07:34:23;99460.34;;;8.93;75.20
10948;BME280;5526;42.070;24.752;2023-12-29T07:36:50;99464.78;;;9.04;74.56
10948;BME280;5526;42.070;24.752;2023-12-29T07:39:19;99480.75;;;9.03;76.54
10948;BME280;5526;42.070;24.752;2023-12-29T07:41:46;99471.06;;;8.80;77.12
10948;BME280;5526;42.070;24.752;2023-12-29T07:44:14;99474.19;;;8.65;78.92
10948;BME280;5526;42.070;24.752;2023-12-29T07:46:41;99468.34;;;8.52;80.13
10948;BME280;5526;42.070;24.752;2023-12-29T07:49:08;99476.91;;;8.36;80.61
10948;BME280;5526;42.070;24.752;2023-12-29T07:51:40;99472.81;;;7.87;82.48
10948;BME280;5526;42.070;24.752;2023-12-29T07:54:08;99468.06;;;8.07;81.79
10948;BME280;5526;42.070;24.752;2023-12-29T07:56:35;99475.59;;;8.04;82.97
10948;BME280;5526;42.070;24.752;2023-12-29T07:59:03;99470.94;;;8.17;82.20
10948;BME280;5526;42.070;24.752;2023-12-29T08:01:30;99470.72;;;8.19;82.71
10948;BME280;5526;42.070;24.752;2023-12-29T08:03:57;99479.91;;;8.39;81.52
10948;BME280;5526;42.070;24.752;2023-12-29T08:06:24;99474.28;;;8.59;80.79
10948;BME280;5526;42.070;24.752;2023-12-29T08:08:53;99473.28;;;8.71;80.19
10948;BME280;5526;42.070;24.752;2023-12-29T08:11:21;99471.88;;;8.80;79.14
10948;BME280;5526;42.070;24.752;2023-12-29T08:13:48;99463.75;;;9.05;78.01
10948;BME280;5526;42.070;24.752;2023-12-29T08:16:16;99464.97;;;9.26;77.10
10948;BME280;5526;42.070;24.752;2023-12-29T08:18:44;99471.59;;;9.45;74.75
10948;BME280;5526;42.070;24.752;2023-12-29T08:21:21;99482.09;;;9.56;71.15
10948;BME280;5526;42.070;24.752;2023-12-29T08:23:49;99488.41;;;9.44;73.18
10948;BME280;5526;42.070;24.752;2023-12-29T08:26:17;99481.75;;;9.53;72.66
10948;BME280;5526;42.070;24.752;2023-12-29T08:28:44;99480.66;;;9.65;71.53
10948;BME280;5526;42.070;24.752;2023-12-29T08:31:12;99478.56;;;9.51;71.84
10948;BME280;5526;42.070;24.752;2023-12-29T08:33:39;99485.78;;;9.44;71.10
10948;BME280;5526;42.070;24.752;2023-12-29T08:36:07;99477.00;;;9.66;71.26
10948;BME280;5526;42.070;24.752;2023-12-29T08:38:35;99474.50;;;9.88;70.98
10948;BME280;5526;42.070;24.752;2023-12-29T08:41:02;99469.84;;;9.78;70.85
10948;BME280;5526;42.070;24.752;2023-12-29T08:43:31;99472.69;;;10.05;70.60
10948;BME280;5526;42.070;24.752;2023-12-29T08:46:01;99476.50;;;10.25;69.59
10948;BME280;5526;42.070;24.752;2023-12-29T08:48:29;99470.34;;;10.20;68.41
10948;BME280;5526;42.070;24.752;2023-12-29T08:50:56;99466.28;;;10.12;69.37
10948;BME280;5526;42.070;24.752;2023-12-29T08:53:23;99460.38;;;10.38;68.49
10948;BME280;5526;42.070;24.752;2023-12-29T08:55:51;99457.81;;;10.60;67.92
10948;BME280;5526;42.070;24.752;2023-12-29T08:58:18;99451.81;;;10.86;67.60
10948;BME280;5526;42.070;24.752;2023-12-29T09:00:46;99445.84;;;11.12;66.64
10948;BME280;5526;42.070;24.752;2023-12-29T09:03:13;99456.06;;;11.30;66.12
10948;BME280;5526;42.070;24.752;2023-12-29T09:05:40;99446.16;;;11.37;65.11
10948;BME280;5526;42.070;24.752;2023-12-29T09:08:07;99452.34;;;11.52;63.72
10948;BME280;5526;42.070;24.752;2023-12-29T09:10:35;99445.13;;;11.64;62.48
10948;BME280;5526;42.070;24.752;2023-12-29T09:13:02;99445.06;;;11.59;62.21
10948;BME280;5526;42.070;24.752;2023-12-29T09:15:29;99439.44;;;11.51;62.50
10948;BME280;5526;42.070;24.752;2023-12-29T09:17:57;99439.56;;;11.61;62.38
10948;BME280;5526;42.070;24.752;2023-12-29T09:20:24;99434.97;;;11.78;61.74
10948;BME280;5526;42.070;24.752;2023-12-29T09:22:52;99442.69;;;11.84;61.21
10948;BME280;5526;42.070;24.752;2023-12-29T09:25:19;99438.50;;;11.88;61.22
10948;BME280;5526;42.070;24.752;2023-12-29T09:27:46;99441.72;;;11.95;61.03
10948;BME280;5526;42.070;24.752;2023-12-29T09:30:15;99436.28;;;12.07;61.03
10948;BME280;5526;42.070;24.752;2023-12-29T09:32:42;99437.34;;;12.11;61.31
10948;BME280;5526;42.070;24.752;2023-12-29T09:35:10;99437.16;;;12.17;61.27
10948;BME280;5526;42.070;24.752;2023-12-29T09:37:38;99438.06;;;12.33;60.74
10948;BME280;5526;42.070;24.752;2023-12-29T09:40:06;99436.84;;;12.45;60.55
10948;BME280;5526;42.070;24.752;2023-12-29T09:42:35;99422.13;;;12.59;59.73
10948;BME280;5526;42.070;24.752;2023-12-29T09:45:07;99414.44;;;12.58;59.01
10948;BME280;5526;42.070;24.752;2023-12-29T09:47:37;99426.22;;;12.82;58.63
10948;BME280;5526;42.070;24.752;2023-12-29T09:50:06;99409.41;;;12.98;57.80
10948;BME280;5526;42.070;24.752;2023-12-29T09:52:35;99408.09;;;13.01;57.23
10948;BME280;5526;42.070;24.752;2023-12-29T09:55:04;99417.25;;;12.88;57.22
10948;BME280;5526;42.070;24.752;2023-12-29T09:57:32;99407.84;;;13.07;57.04
10948;BME280;5526;42.070;24.752;2023-12-29T09:59:59;99397.59;;;13.26;56.55
10948;BME280;5526;42.070;24.752;2023-12-29T10:02:26;99383.59;;;13.30;56.47
10948;BME280;5526;42.070;24.752;2023-12-29T10:04:55;99386.28;;;13.45;55.93
10948;BME280;5526;42.070;24.752;2023-12-29T10:07:24;99386.56;;;13.64;55.83
10948;BME280;5526;42.070;24.752;2023-12-29T10:09:55;99377.31;;;13.81;55.61
10948;BME280;5526;42.070;24.752;2023-12-29T10:12:24;99372.03;;;13.91;55.85
10948;BME280;5526;42.070;24.752;2023-12-29T10:14:59;99365.03;;;14.60;52.78
10948;BME280;5526;42.070;24.752;2023-12-29T10:17:39;99366.41;;;14.48;52.31
10948;BME280;5526;42.070;24.752;2023-12-29T10:20:15;99346.88;;;14.29;52.57
10948;BME280;5526;42.070;24.752;2023-12-29T10:22:49;99353.75;;;14.15;53.06
10948;BME280;5526;42.070;24.752;2023-12-29T10:25:20;99349.25;;;14.15;53.28
10948;BME280;5526;42.070;24.752;2023-12-29T10:27:49;99348.47;;;14.10;53.57
10948;BME280;5526;42.070;24.752;2023-12-29T10:30:17;99346.34;;;14.17;53.04
10948;BME280;5526;42.070;24.752;2023-12-29T10:32:49;99336.53;;;14.27;52.25
10948;BME280;5526;42.070;24.752;2023-12-29T10:35:16;99337.59;;;14.31;51.73
10948;BME280;5526;42.070;24.752;2023-12-29T10:37:43;99331.22;;;14.37;51.23
10948;BME280;5526;42.070;24.752;2023-12-29T10:40:17;99339.66;;;14.54;49.53
10948;BME280;5526;42.070;24.752;2023-12-29T10:42:53;99329.25;;;14.68;49.29
10948;BME280;5526;42.070;24.752;2023-12-29T10:45:21;99327.13;;;14.70;49.90
10948;BME280;5526;42.070;24.752;2023-12-29T10:47:50;99329.16;;;14.88;48.93
10948;BME280;5526;42.070;24.752;2023-12-29T10:50:17;99329.91;;;14.98;47.74
10948;BME280;5526;42.070;24.752;2023-12-29T10:52:44;99326.69;;;15.06;47.35
10948;BME280;5526;42.070;24.752;2023-12-29T10:55:12;99325.09;;;15.00;45.88
10948;BME280;5526;42.070;24.752;2023-12-29T10:57:39;99323.72;;;15.13;45.53
10948;BME280;5526;42.070;24.752;2023-12-29T11:00:10;99316.44;;;15.33;45.08
10948;BME280;5526;42.070;24.752;2023-12-29T11:02:39;99319.31;;;15.42;43.95
10948;BME280;5526;42.070;24.752;2023-12-29T11:05:08;99315.06;;;15.46;43.99
10948;BME280;5526;42.070;24.752;2023-12-29T11:07:38;99307.31;;;15.49;44.13
10948;BME280;5526;42.070;24.752;2023-12-29T11:10:07;99305.31;;;15.65;43.63
10948;BME280;5526;42.070;24.752;2023-12-29T11:12:35;99290.34;;;15.79;42.49
10948;BME280;5526;42.070;24.752;2023-12-29T11:15:04;99296.75;;;16.01;42.22
10948;BME280;5526;42.070;24.752;2023-12-29T11:17:34;99293.41;;;16.19;42.31
10948;BME280;5526;42.070;24.752;2023-12-29T11:20:03;99287.25;;;16.24;42.25
10948;BME280;5526;42.070;24.752;2023-12-29T11:22:31;99276.63;;;16.24;42.86
10948;BME280;5526;42.070;24.752;2023-12-29T11:25:00;99281.41;;;16.22;42.01
10948;BME280;5526;42.070;24.752;2023-12-29T11:27:28;99284.38;;;16.39;41.32
10948;BME280;5526;42.070;24.752;2023-12-29T11:29:58;99272.97;;;16.43;40.70
10948;BME280;5526;42.070;24.752;2023-12-29T11:32:32;99276.63;;;16.47;40.70
10948;BME280;5526;42.070;24.752;2023-12-29T11:35:11;99278.72;;;16.50;40.97
10948;BME280;5526;42.070;24.752;2023-12-29T11:37:56;99280.59;;;16.68;41.57
10948;BME280;5526;42.070;24.752;2023-12-29T11:40:30;99272.38;;;16.88;41.45
10948;BME280;5526;42.070;24.752;2023-12-29T11:43:05;99270.72;;;16.92;41.12
10948;BME280;5526;42.070;24.752;2023-12-29T11:45:35;99268.13;;;16.87;41.08
10948;BME280;5526;42.070;24.752;2023-12-29T11:48:03;99267.25;;;16.92;40.81
10948;BME280;5526;42.070;24.752;2023-12-29T11:50:33;99272.22;;;16.61;41.25
10948;BME280;5526;42.070;24.752;2023-12-29T11:53:02;99261.88;;;16.60;41.51
10948;BME280;5526;42.070;24.752;2023-12-29T11:55:30;99259.69;;;16.80;41.16
10948;BME280;5526;42.070;24.752;2023-12-29T11:57:58;99251.38;;;16.68;41.21
10948;BME280;5526;42.070;24.752;2023-12-29T12:00:41;99255.91;;;16.86;40.72
10948;BME280;5526;42.070;24.752;2023-12-29T12:03:24;99256.91;;;16.90;39.88
10948;BME280;5526;42.070;24.752;2023-12-29T12:05:54;99257.34;;;16.98;41.15
10948;BME280;5526;42.070;24.752;2023-12-29T12:08:27;99244.13;;;16.92;40.68
10948;BME280;5526;42.070;24.752;2023-12-29T12:10:55;99260.38;;;16.91;40.87
10948;BME280;5526;42.070;24.752;2023-12-29T12:13:43;99257.56;;;17.01;39.31
10948;BME280;5526;42.070;24.752;2023-12-29T12:16:49;99257.47;;;16.87;39.23
10948;BME280;5526;42.070;24.752;2023-12-29T12:19:19;99246.66;;;16.84;39.98
10948;BME280;5526;42.070;24.752;2023-12-29T12:21:48;99258.00;;;16.89;39.95
10948;BME280;5526;42.070;24.752;2023-12-29T12:24:18;99255.38;;;16.84;39.99
10948;BME280;5526;42.070;24.752;2023-12-29T12:26:45;99254.81;;;16.87;40.36
10948;BME280;5526;42.070;24.752;2023-12-29T12:29:13;99252.13;;;16.92;39.86
10948;BME280;5526;42.070;24.752;2023-12-29T12:31:52;99252.97;;;16.88;39.19
10948;BME280;5526;42.070;24.752;2023-12-29T12:34:20;99254.41;;;16.99;40.08
10948;BME280;5526;42.070;24.752;2023-12-29T12:36:51;99252.22;;;17.84;38.38
10948;BME280;5526;42.070;24.752;2023-12-29T12:39:19;99247.41;;;18.13;37.28
10948;BME280;5526;42.070;24.752;2023-12-29T12:41:46;99256.94;;;17.60;38.45
10948;BME280;5526;42.070;24.752;2023-12-29T12:44:14;99249.91;;;17.32;38.98
10948;BME280;5526;42.070;24.752;2023-12-29T12:46:48;99256.53;;;17.34;39.05
10948;BME280;5526;42.070;24.752;2023-12-29T12:49:17;99250.97;;;17.31;39.41
10948;BME280;5526;42.070;24.752;2023-12-29T12:51:45;99251.91;;;17.21;39.45
10948;BME280;5526;42.070;24.752;2023-12-29T12:54:17;99239.13;;;17.23;39.25
10948;BME280;5526;42.070;24.752;2023-12-29T12:56:46;99254.88;;;17.20;39.66
10948;BME280;5526;42.070;24.752;2023-12-29T12:59:13;99240.50;;;17.02;39.99
10948;BME280;5526;42.070;24.752;2023-12-29T13:01:42;99253.38;;;17.14;39.83
10948;BME280;5526;42.070;24.752;2023-12-29T13:04:11;99251.00;;;17.12;39.91
10948;BME280;5526;42.070;24.752;2023-12-29T13:06:40;99238.09;;;17.06;39.89
10948;BME280;5526;42.070;24.752;2023-12-29T13:09:08;99249.00;;;17.04;39.28
10948;BME280;5526;42.070;24.752;2023-12-29T13:11:39;99247.84;;;16.91;39.74
10948;BME280;5526;42.070;24.752;2023-12-29T13:14:07;99243.53;;;16.95;39.38